Time;durP1;ratioP1;P1;durP2;ratioP2;P2;SDS_P1;SDS_P2;PMS_P1;PMS_P2;Temp;Humidity;BMP_temperature;BMP_pressure;BME280_temperature;BME280_humidity;BME280_pressure;Samples;Min_cycle;Max_cycle;Signal;HPM_P1;HPM_P2
2023/09/29 00:00:47;;;;;;;17.77;6.68;;;;;;;15.84;100.00;101466.28;5090111;28;20111;-82
2023/09/29 00:03:17;;;;;;;16.52;6.50;;;;;;;15.85;100.00;101470.63;5070895;28;20032;-76
2023/09/29 00:05:43;;;;;;;14.07;6.20;;;;;;;15.85;100.00;101465.31;5072609;28;20392;-82
2023/09/29 00:08:09;;;;;;;14.90;5.88;;;;;;;15.84;100.00;101458.34;5089317;28;20028;-77
2023/09/29 00:10:39;;;;;;;16.38;6.15;;;;;;;15.85;100.00;101467.97;5090604;28;20077;-83
2023/09/29 00:13:06;;;;;;;20.02;6.85;;;;;;;15.86;100.00;101464.34;5090150;28;20055;-82
2023/09/29 00:15:33;;;;;;;16.83;5.97;;;;;;;15.85;100.00;101463.50;5071295;28;20544;-83
2023/09/29 00:17:59;;;;;;;14.40;5.95;;;;;;;15.87;100.00;101458.06;5090354;28;20024;-76
2023/09/29 00:20:24;;;;;;;18.08;6.28;;;;;;;15.88;100.00;101460.59;5069091;28;20031;-81
2023/09/29 00:22:55;;;;;;;13.15;5.88;;;;;;;15.87;100.00;101460.72;5071228;28;20028;-82
2023/09/29 00:25:21;;;;;;;13.95;6.07;;;;;;;15.90;100.00;101466.59;5089777;28;20028;-82
2023/09/29 00:27:47;;;;;;;12.27;5.80;;;;;;;15.91;100.00;101459.47;5084961;28;20392;-82
2023/09/29 00:30:13;;;;;;;14.45;6.20;;;;;;;15.93;100.00;101460.19;5051108;28;20039;-82
2023/09/29 00:32:50;;;;;;;13.10;5.32;;;;;;;15.97;100.00;101456.28;5074515;28;20035;-82
2023/09/29 00:35:27;;;;;;;12.93;5.32;;;;;;;16.00;100.00;101456.03;5070687;28;20488;-82
2023/09/29 00:37:58;;;;;;;12.98;5.57;;;;;;;15.99;100.00;101457.84;5085812;28;20020;-82
2023/09/29 00:40:25;;;;;;;11.93;5.70;;;;;;;16.01;100.00;101449.75;5049230;28;20051;-82
2023/09/29 00:42:52;;;;;;;11.38;5.43;;;;;;;16.03;100.00;101450.47;5050270;28;20392;-82
2023/09/29 00:45:22;;;;;;;12.77;5.35;;;;;;;16.05;100.00;101448.53;5073383;28;20036;-76
2023/09/29 00:47:50;;;;;;;9.48;5.32;;;;;;;16.07;100.00;101451.88;5070032;28;20564;-76
2023/09/29 00:50:19;;;;;;;15.57;5.80;;;;;;;16.07;100.00;101438.59;5082236;28;20024;-81
2023/09/29 00:52:45;;;;;;;11.85;5.40;;;;;;;16.11;100.00;101436.53;5087886;28;20523;-82
2023/09/29 00:55:15;;;;;;;11.52;5.25;;;;;;;16.11;100.00;101439.19;5088039;28;20039;-82
2023/09/29 00:57:48;;;;;;;13.48;5.22;;;;;;;16.11;100.00;101445.31;5086110;28;20028;-82
2023/09/29 01:00:14;;;;;;;11.30;6.20;;;;;;;16.13;100.00;101443.38;5064096;28;20020;-76
2023/09/29 01:02:43;;;;;;;11.95;5.18;;;;;;;16.13;100.00;101440.72;5073585;28;20115;-82
2023/09/29 01:05:10;;;;;;;13.15;5.07;;;;;;;16.14;100.00;101438.91;5086283;28;20081;-81
2023/09/29 01:07:41;;;;;;;9.57;5.03;;;;;;;16.15;100.00;101430.81;5071332;28;20439;-76
2023/09/29 01:10:17;;;;;;;10.73;4.80;;;;;;;16.14;100.00;101426.47;5070922;28;20113;-82
2023/09/29 01:12:43;;;;;;;9.95;5.03;;;;;;;16.15;100.00;101429.97;5080856;28;20565;-76
2023/09/29 01:15:13;;;;;;;10.43;4.90;;;;;;;16.16;100.00;101424.50;5072096;28;20103;-82
2023/09/29 01:17:40;;;;;;;12.15;5.25;;;;;;;16.16;100.00;101421.84;5079594;28;20078;-76
2023/09/29 01:20:12;;;;;;;11.90;5.43;;;;;;;16.17;100.00;101410.25;5050586;28;20025;-76
2023/09/29 01:22:47;;;;;;;9.65;4.60;;;;;;;16.18;100.00;101419.91;5069150;28;20485;-81
2023/09/29 01:25:17;;;;;;;10.45;4.72;;;;;;;16.18;100.00;101419.06;5030405;28;20032;-76
2023/09/29 01:27:42;;;;;;;10.73;4.72;;;;;;;16.19;100.00;101410.97;5056256;28;20135;-81
2023/09/29 01:30:09;;;;;;;7.97;4.47;;;;;;;16.19;100.00;101407.47;5074178;28;20111;-76
2023/09/29 01:32:34;;;;;;;9.30;4.55;;;;;;;16.19;100.00;101413.63;5068318;28;20108;-76
2023/09/29 01:35:00;;;;;;;9.48;4.53;;;;;;;16.19;100.00;101405.66;5059824;28;20126;-82
2023/09/29 01:37:25;;;;;;;10.40;4.60;;;;;;;16.22;100.00;101396.56;5069207;28;20024;-76
2023/09/29 01:39:51;;;;;;;8.35;4.25;;;;;;;16.22;100.00;101392.09;5088571;28;20032;-76
2023/09/29 01:42:17;;;;;;;7.30;4.30;;;;;;;16.22;100.00;101386.78;5089608;28;20045;-81
2023/09/29 01:44:43;;;;;;;8.68;4.20;;;;;;;16.22;100.00;101385.97;5089680;28;20051;-76
2023/09/29 01:47:08;;;;;;;7.22;4.28;;;;;;;16.23;100.00;101399.09;5088031;28;20043;-81
2023/09/29 01:49:34;;;;;;;8.65;4.45;;;;;;;16.23;100.00;101391.13;5075804;28;20032;-76
2023/09/29 01:51:59;;;;;;;7.72;4.32;;;;;;;16.27;100.00;101389.88;5093376;28;20373;-77
2023/09/29 01:54:24;;;;;;;6.75;4.03;;;;;;;16.25;100.00;101383.88;5074461;28;20107;-76
2023/09/29 01:56:50;;;;;;;7.18;3.90;;;;;;;16.28;100.00;101386.25;5093298;28;20065;-81
2023/09/29 01:59:16;;;;;;;7.30;3.67;;;;;;;16.31;100.00;101379.81;5093352;28;20042;-81
2023/09/29 02:01:48;;;;;;;7.07;3.97;;;;;;;16.32;100.00;101381.50;5076124;28;20495;-76
2023/09/29 02:04:14;;;;;;;6.53;4.00;;;;;;;16.32;100.00;101367.38;5092849;28;20387;-81
2023/09/29 02:06:41;;;;;;;7.60;3.65;;;;;;;16.33;100.00;101372.56;5092538;28;20024;-81
2023/09/29 02:09:10;;;;;;;8.52;3.60;;;;;;;16.33;100.00;101367.25;5062225;28;20126;-81
2023/09/29 02:11:39;;;;;;;7.78;3.67;;;;;;;16.35;100.00;101364.44;5070874;28;20032;-82
2023/09/29 02:14:05;;;;;;;8.65;3.88;;;;;;;16.38;100.00;101369.47;5069226;28;20895;-81
2023/09/29 02:16:31;;;;;;;7.45;3.55;;;;;;;16.39;100.00;101371.16;5071377;28;20480;-82
2023/09/29 02:18:57;;;;;;;6.43;3.25;;;;;;;16.38;100.00;101370.31;5072544;28;20039;-82
2023/09/29 02:21:25;;;;;;;6.85;3.58;;;;;;;16.39;100.00;101365.84;5090324;28;20020;-76
2023/09/29 02:23:51;;;;;;;5.50;3.42;;;;;;;16.38;100.00;101366.81;5061906;28;20499;-80
2023/09/29 02:26:17;;;;;;;7.32;3.47;;;;;;;16.38;100.00;101364.16;5079558;28;20039;-80
2023/09/29 02:28:42;;;;;;;6.97;3.58;;;;;;;16.41;100.00;101358.56;5079506;28;20024;-75
2023/09/29 02:31:13;;;;;;;7.57;3.53;;;;;;;16.37;100.00;101351.88;5078406;28;20030;-80
2023/09/29 02:33:40;;;;;;;7.55;3.33;;;;;;;16.38;100.00;101348.22;5092352;28;20031;-75
2023/09/29 02:36:06;;;;;;;6.65;3.38;;;;;;;16.40;100.00;101351.59;5091401;28;20388;-80
2023/09/29 02:38:33;;;;;;;5.80;3.10;;;;;;;16.39;100.00;101355.22;5089760;28;20167;-80
2023/09/29 02:40:59;;;;;;;7.50;3.58;;;;;;;16.38;100.00;101340.25;5084601;28;20028;-75
2023/09/29 02:43:27;;;;;;;7.40;3.40;;;;;;;16.41;100.00;101334.66;5090855;28;20104;-77
2023/09/29 02:45:53;;;;;;;5.70;3.08;;;;;;;16.43;100.00;101333.59;5081011;28;20440;-75
2023/09/29 02:48:18;;;;;;;8.30;2.97;;;;;;;16.42;100.00;101325.75;5073737;28;20028;-80
2023/09/29 02:50:45;;;;;;;7.22;3.20;;;;;;;16.45;100.00;101323.66;5089424;28;20051;-80
2023/09/29 02:53:10;;;;;;;7.40;3.33;;;;;;;16.47;100.00;101326.16;5089982;28;20077;-80
2023/09/29 02:55:37;;;;;;;4.68;2.95;;;;;;;16.50;100.00;101336.50;5083997;28;20434;-81
2023/09/29 02:58:03;;;;;;;5.93;3.17;;;;;;;16.49;100.00;101319.75;5092072;28;20384;-81
2023/09/29 03:00:29;;;;;;;4.50;2.80;;;;;;;16.49;100.00;101314.44;5090001;28;20031;-80
2023/09/29 03:02:54;;;;;;;6.47;3.13;;;;;;;16.47;100.00;101299.59;5082063;28;20028;-80
2023/09/29 03:05:21;;;;;;;4.15;2.85;;;;;;;16.50;100.00;101307.28;5071404;28;20028;-80
2023/09/29 03:07:46;;;;;;;6.65;3.28;;;;;;;16.51;100.00;101315.13;5052849;28;20021;-75
2023/09/29 03:10:17;;;;;;;6.43;3.05;;;;;;;16.54;100.00;101309.53;5072744;28;20059;-80
2023/09/29 03:12:44;;;;;;;5.47;2.85;;;;;;;16.53;100.00;101315.81;5088388;28;20028;-80
2023/09/29 03:15:13;;;;;;;5.10;2.78;;;;;;;16.56;100.00;101312.88;5070874;28;20028;-75
2023/09/29 03:17:39;;;;;;;7.55;3.03;;;;;;;16.57;100.00;101327.00;5070732;28;20070;-75
2023/09/29 03:20:10;;;;;;;5.50;3.10;;;;;;;16.57;100.00;101313.72;5053227;28;20417;-75
2023/09/29 03:22:39;;;;;;;6.47;2.97;;;;;;;16.56;100.00;101304.91;5051365;28;20203;-75
2023/09/29 03:25:06;;;;;;;5.78;2.97;;;;;;;16.57;100.00;101303.09;5071258;28;20065;-80
2023/09/29 03:27:32;;;;;;;7.43;2.90;;;;;;;16.57;100.00;101295.13;5090835;28;20012;-80
2023/09/29 03:29:58;;;;;;;6.85;3.33;;;;;;;16.56;100.00;101293.44;5088604;28;20559;-80
2023/09/29 03:32:26;;;;;;;6.30;3.00;;;;;;;16.55;100.00;101289.94;5090593;28;20054;-80
2023/09/29 03:34:52;;;;;;;4.22;2.83;;;;;;;16.56;100.00;101282.81;5088963;28;20020;-75
2023/09/29 03:37:19;;;;;;;6.38;2.97;;;;;;;16.56;100.00;101283.66;5081116;28;20024;-81
2023/09/29 03:39:44;;;;;;;7.47;3.10;;;;;;;16.56;100.00;101278.34;5073570;28;20052;-80
2023/09/29 03:42:10;;;;;;;5.47;2.92;;;;;;;16.56;100.00;101272.19;5068578;28;20519;-80
2023/09/29 03:44:36;;;;;;;6.70;3.30;;;;;;;16.58;100.00;101259.59;5085765;28;20081;-81
2023/09/29 03:47:03;;;;;;;9.27;3.25;;;;;;;16.57;100.00;101263.25;5090461;28;20476;-80
2023/09/29 03:49:31;;;;;;;6.85;3.08;;;;;;;16.55;100.00;101266.03;5072949;28;20028;-81
2023/09/29 03:51:57;;;;;;;6.13;3.03;;;;;;;16.57;100.00;101263.25;5067697;28;20027;-76
2023/09/29 03:54:23;;;;;;;6.28;3.00;;;;;;;16.56;100.00;101256.25;5083350;28;20492;-75
2023/09/29 03:56:52;;;;;;;5.43;3.00;;;;;;;16.56;100.00;101256.25;5088512;28;20016;-80
2023/09/29 03:59:18;;;;;;;6.45;3.13;;;;;;;16.56;100.00;101257.09;5050878;28;20111;-81
2023/09/29 04:01:45;;;;;;;7.32;3.03;;;;;;;16.56;100.00;101258.91;5072928;28;20028;-76
2023/09/29 04:04:12;;;;;;;5.05;3.00;;;;;;;16.56;100.00;101253.59;5055943;28;20029;-80
2023/09/29 04:06:37;;;;;;;6.60;3.20;;;;;;;16.56;100.00;101248.28;5082115;28;20038;-81
2023/09/29 04:09:04;;;;;;;4.60;2.97;;;;;;;16.59;100.00;101240.03;5075029;28;20383;-81
2023/09/29 04:11:30;;;;;;;7.75;3.30;;;;;;;16.61;100.00;101240.72;5071240;28;20396;-75
2023/09/29 04:13:55;;;;;;;5.63;3.17;;;;;;;16.60;100.00;101239.03;5070772;28;20027;-75
2023/09/29 04:16:22;;;;;;;5.60;3.03;;;;;;;16.62;100.00;101250.38;5050874;28;20039;-76
2023/09/29 04:18:49;;;;;;;7.53;3.20;;;;;;;16.63;100.00;101257.34;5071163;28;20024;-80
2023/09/29 04:21:15;;;;;;;7.97;3.42;;;;;;;16.64;100.00;101259.03;5069453;28;20024;-81
2023/09/29 04:23:44;;;;;;;4.80;2.80;;;;;;;16.66;100.00;101242.97;5053576;28;20005;-81
2023/09/29 04:26:21;;;;;;;7.10;2.92;;;;;;;16.66;100.00;101241.16;5075080;28;20019;-75
2023/09/29 04:28:50;;;;;;;5.78;3.00;;;;;;;16.68;100.00;101233.88;5079524;28;20031;-76
2023/09/29 04:31:16;;;;;;;6.20;3.13;;;;;;;16.69;100.00;101227.59;5078987;28;20024;-81
2023/09/29 04:33:43;;;;;;;6.10;3.13;;;;;;;16.69;100.00;101234.72;5078918;28;20042;-75
2023/09/29 04:36:08;;;;;;;5.13;3.05;;;;;;;16.71;100.00;101228.28;5071127;28;20017;-81
2023/09/29 04:38:34;;;;;;;5.32;3.03;;;;;;;16.72;100.00;101235.25;5051871;28;20296;-80
2023/09/29 04:41:00;;;;;;;5.97;3.00;;;;;;;16.75;100.00;101226.16;5052699;28;20582;-80
2023/09/29 04:43:28;;;;;;;5.05;3.20;;;;;;;16.75;100.00;101229.66;5083575;28;20127;-81
2023/09/29 04:45:54;;;;;;;7.82;3.22;;;;;;;16.77;100.00;101219.72;5083323;28;20039;-75
2023/09/29 04:48:19;;;;;;;6.22;2.83;;;;;;;16.78;100.00;101218.72;5088797;28;20111;-80
2023/09/29 04:50:45;;;;;;;6.60;3.08;;;;;;;16.79;100.00;101225.72;5067964;28;20055;-81
2023/09/29 04:53:10;;;;;;;5.00;3.05;;;;;;;16.82;100.00;101237.91;5068356;28;20025;-80
2023/09/29 04:55:37;;;;;;;8.57;3.00;;;;;;;16.83;100.00;101237.78;5083441;28;20379;-75
2023/09/29 04:58:02;;;;;;;4.10;2.90;;;;;;;16.86;100.00;101234.81;5083137;28;20027;-75
2023/09/29 05:00:27;;;;;;;4.80;2.60;;;;;;;16.88;100.00;101232.84;5068087;28;20037;-82
2023/09/29 05:02:52;;;;;;;6.60;2.75;;;;;;;16.91;100.00;101235.22;5066218;28;20398;-81
2023/09/29 05:05:18;;;;;;;5.47;2.85;;;;;;;16.93;100.00;101232.41;5056955;28;20089;-81
2023/09/29 05:07:44;;;;;;;3.88;2.60;;;;;;;16.95;100.00;101224.31;5058882;28;20036;-81
2023/09/29 05:10:11;;;;;;;6.03;3.20;;;;;;;16.96;100.00;101225.97;5060465;28;20037;-76
2023/09/29 05:12:37;;;;;;;7.07;3.10;;;;;;;17.00;100.00;101227.34;5050544;28;20362;-81
2023/09/29 05:15:03;;;;;;;6.22;2.90;;;;;;;17.00;100.00;101216.72;5049441;28;20445;-81
2023/09/29 05:17:30;;;;;;;6.28;2.88;;;;;;;17.01;100.00;101213.91;5049021;28;20044;-76
2023/09/29 05:19:56;;;;;;;4.03;2.63;;;;;;;17.04;100.00;101210.13;5059940;28;20472;-82
2023/09/29 05:22:21;;;;;;;4.45;2.80;;;;;;;17.05;100.00;101203.81;5072713;28;20051;-81
2023/09/29 05:24:47;;;;;;;8.25;3.15;;;;;;;17.04;100.00;101196.84;5074348;28;20077;-76
2023/09/29 05:27:12;;;;;;;5.88;2.83;;;;;;;17.07;100.00;101201.84;5090761;28;20034;-82
2023/09/29 05:29:38;;;;;;;6.18;2.70;;;;;;;17.06;100.00;101200.19;5085888;28;20019;-76
2023/09/29 05:32:03;;;;;;;6.53;3.20;;;;;;;17.07;100.00;101196.53;5072472;28;20043;-81
2023/09/29 05:34:29;;;;;;;7.95;2.80;;;;;;;17.10;100.00;101193.56;5073588;28;20032;-81
2023/09/29 05:36:55;;;;;;;6.32;3.00;;;;;;;17.10;100.00;101201.56;5073284;28;20077;-76
2023/09/29 05:39:23;;;;;;;6.43;2.78;;;;;;;17.11;100.00;101204.06;5082947;28;20400;-76
2023/09/29 05:41:49;;;;;;;8.27;3.10;;;;;;;17.15;100.00;101199.28;5075310;28;20024;-81
2023/09/29 05:44:15;;;;;;;7.10;2.90;;;;;;;17.17;100.00;101207.97;5071687;28;20027;-76
2023/09/29 05:46:40;;;;;;;4.80;2.78;;;;;;;17.16;100.00;101201.81;5085718;28;20123;-81
2023/09/29 05:49:06;;;;;;;6.03;2.80;;;;;;;17.16;100.00;101200.97;5072477;28;20591;-81
2023/09/29 05:51:32;;;;;;;7.07;2.70;;;;;;;17.18;100.00;101204.31;5080223;28;20111;-81
2023/09/29 05:53:58;;;;;;;5.75;2.83;;;;;;;17.21;100.00;101204.88;5076768;28;20169;-76
2023/09/29 05:56:23;;;;;;;5.90;2.58;;;;;;;17.22;100.00;101214.53;5083125;28;20020;-76
2023/09/29 05:58:49;;;;;;;5.10;2.65;;;;;;;17.24;100.00;101219.72;5073510;28;20520;-81
2023/09/29 06:01:15;;;;;;;3.85;2.40;;;;;;;17.28;100.00;101205.13;5081213;28;20487;-80
2023/09/29 06:03:40;;;;;;;4.82;2.80;;;;;;;17.32;100.00;101205.66;5073319;28;20055;-81
2023/09/29 06:06:11;;;;;;;7.45;2.63;;;;;;;17.33;100.00;101213.50;5070451;28;20024;-81
2023/09/29 06:08:37;;;;;;;7.43;2.80;;;;;;;17.36;100.00;101207.88;5087807;28;20036;-81
2023/09/29 06:11:04;;;;;;;3.70;2.72;;;;;;;17.39;100.00;101212.91;5073715;28;20029;-81
2023/09/29 06:13:30;;;;;;;6.28;2.63;;;;;;;17.41;100.00;101221.56;5073800;28;20032;-81
2023/09/29 06:15:59;;;;;;;4.68;2.80;;;;;;;17.47;100.00;101215.66;5063669;28;20158;-82
2023/09/29 06:18:26;;;;;;;5.38;2.63;;;;;;;17.54;100.00;101222.03;5053875;28;20055;-82
2023/09/29 06:20:51;;;;;;;5.82;2.80;;;;;;;17.59;100.00;101218.09;5071690;28;20062;-76
2023/09/29 06:23:21;;;;;;;5.78;2.90;;;;;;;17.64;100.00;101215.84;5066694;28;20028;-81
2023/09/29 06:25:47;;;;;;;7.07;2.53;;;;;;;17.71;100.00;101214.28;5072390;28;20111;-77
2023/09/29 06:28:12;;;;;;;7.95;2.65;;;;;;;17.72;100.00;101203.47;5084482;28;20166;-76
2023/09/29 06:30:39;;;;;;;4.18;2.55;;;;;;;17.77;100.00;101209.19;5090954;28;20114;-81
2023/09/29 06:33:06;;;;;;;5.93;2.30;;;;;;;17.85;100.00;101213.75;5067827;28;20049;-80
2023/09/29 06:35:32;;;;;;;3.97;2.47;;;;;;;17.90;100.00;101211.47;5090750;28;20110;-80
2023/09/29 06:37:58;;;;;;;4.03;2.40;;;;;;;17.93;100.00;101211.16;5089868;28;20026;-79
2023/09/29 06:40:24;;;;;;;4.43;2.50;;;;;;;17.95;100.00;101219.81;5092683;28;20114;-75
2023/09/29 06:42:49;;;;;;;5.03;2.72;;;;;;;17.99;100.00;101221.19;5078995;28;20024;-80
2023/09/29 06:45:14;;;;;;;4.95;2.42;;;;;;;18.06;100.00;101221.44;5073420;28;20050;-75
2023/09/29 06:47:45;;;;;;;5.35;2.83;;;;;;;18.08;100.00;101225.63;5063487;28;20218;-81
2023/09/29 06:50:10;;;;;;;5.05;2.47;;;;;;;18.15;100.00;101231.19;5067582;28;20043;-75
2023/09/29 06:52:39;;;;;;;4.93;2.40;;;;;;;18.15;100.00;101226.69;5074421;28;20021;-80
2023/09/29 06:55:05;;;;;;;4.28;2.53;;;;;;;18.17;100.00;101231.84;5081671;28;20143;-81
2023/09/29 06:57:31;;;;;;;3.40;2.55;;;;;;;18.22;100.00;101226.06;5085610;28;20115;-81
2023/09/29 06:59:57;;;;;;;5.30;2.53;;;;;;;18.24;100.00;101226.75;5072336;28;20028;-81
2023/09/29 07:02:22;;;;;;;6.38;2.78;;;;;;;18.26;100.00;101230.09;5061100;28;20052;-81
2023/09/29 07:04:47;;;;;;;10.00;2.75;;;;;;;18.29;100.00;101230.63;5055657;28;20024;-80
2023/09/29 07:07:13;;;;;;;5.25;2.72;;;;;;;18.32;100.00;101237.47;5078819;28;20036;-81
2023/09/29 07:09:39;;;;;;;4.93;2.28;;;;;;;18.32;100.00;101232.13;5080069;28;20020;-81
2023/09/29 07:12:06;;;;;;;8.15;2.47;;;;;;;18.35;100.00;101237.16;5062960;28;20028;-81
2023/09/29 07:14:31;;;;;;;4.90;2.60;;;;;;;18.41;100.00;101236.53;5078965;28;20042;-77
2023/09/29 07:16:57;;;;;;;4.63;2.55;;;;;;;18.47;100.00;101235.94;5060056;28;20029;-76
2023/09/29 07:19:22;;;;;;;4.28;2.28;;;;;;;18.51;100.00;101231.13;5079010;28;20046;-76
2023/09/29 07:21:48;;;;;;;6.13;2.40;;;;;;;18.57;100.00;101231.34;5072848;28;20039;-81
2023/09/29 07:24:13;;;;;;;6.65;2.33;;;;;;;18.59;100.00;101240.03;5050406;28;20044;-76
2023/09/29 07:26:38;;;;;;;6.40;2.63;;;;;;;18.66;100.00;101240.25;5054268;28;20088;-76
2023/09/29 07:29:04;;;;;;;3.67;2.30;;;;;;;18.74;100.00;101242.97;5068729;28;20060;-76
2023/09/29 07:31:35;;;;;;;5.82;2.67;;;;;;;18.86;100.00;101246.22;5069010;28;20036;-77
2023/09/29 07:34:01;;;;;;;6.28;2.40;;;;;;;18.96;100.00;101238.94;5074134;28;20476;-76
2023/09/29 07:36:29;;;;;;;5.00;2.85;;;;;;;19.09;100.00;101247.34;5083919;28;20028;-76
2023/09/29 07:38:54;;;;;;;4.82;2.42;;;;;;;19.20;100.00;101239.06;5073374;28;20052;-76
2023/09/29 07:41:19;;;;;;;7.32;2.40;;;;;;;19.32;100.00;101245.81;5073823;28;20055;-81
2023/09/29 07:43:45;;;;;;;3.90;2.10;;;;;;;19.39;100.00;101244.16;5072541;28;20024;-76
2023/09/29 07:46:10;;;;;;;4.63;2.42;;;;;;;19.53;100.00;101250.75;5084484;28;20048;-82
2023/09/29 07:48:35;;;;;;;4.88;2.30;;;;;;;19.63;100.00;101251.47;5070734;28;20060;-76
2023/09/29 07:51:01;;;;;;;4.47;2.53;;;;;;;19.76;100.00;101240.31;5081764;28;20121;-75
2023/09/29 07:53:26;;;;;;;5.32;2.13;;;;;;;19.85;100.00;101252.66;5068265;28;20397;-75
2023/09/29 07:55:52;;;;;;;3.30;2.10;;;;;;;19.93;100.00;101258.03;5076004;28;20486;-76
2023/09/29 07:58:18;;;;;;;4.18;2.30;;;;;;;20.02;100.00;101254.38;5072652;28;20047;-76
2023/09/29 08:00:47;;;;;;;4.03;2.28;;;;;;;20.13;100.00;101252.38;5089264;28;20115;-76
2023/09/29 08:03:13;;;;;;;5.15;2.40;;;;;;;20.21;100.00;101255.06;5089240;28;20511;-76
2023/09/29 08:05:38;;;;;;;3.53;2.25;;;;;;;20.31;100.00;101255.72;5073730;28;20050;-76
2023/09/29 08:08:05;;;;;;;7.72;2.15;;;;;;;20.35;99.81;101254.38;5058695;28;20037;-77
2023/09/29 08:10:32;;;;;;;5.03;2.00;;;;;;;20.46;99.66;101264.78;5081610;28;20111;-76
2023/09/29 08:12:57;;;;;;;6.18;2.10;;;;;;;20.46;98.03;101264.78;5087554;28;20114;-76
2023/09/29 08:15:24;;;;;;;3.05;2.28;;;;;;;20.52;98.38;101268.63;5076183;28;20108;-81
2023/09/29 08:17:51;;;;;;;4.95;2.13;;;;;;;20.55;97.83;101274.47;5060293;28;20036;-77
2023/09/29 08:20:18;;;;;;;4.22;2.30;;;;;;;20.60;97.80;101277.47;5070847;28;20696;-81
2023/09/29 08:22:44;;;;;;;5.20;2.22;;;;;;;20.64;96.35;101284.16;5076875;28;20425;-81
2023/09/29 08:25:10;;;;;;;4.28;2.03;;;;;;;20.69;96.61;101282.81;5076729;28;20107;-80
2023/09/29 08:27:40;;;;;;;4.70;2.15;;;;;;;20.73;96.67;101294.84;5076641;28;20028;-80
2023/09/29 08:30:07;;;;;;;6.55;2.20;;;;;;;20.78;95.81;101300.53;5048052;28;20582;-77
2023/09/29 08:32:32;;;;;;;4.10;2.53;;;;;;;20.77;96.47;101298.84;5087252;28;20024;-76
2023/09/29 08:34:58;;;;;;;7.20;2.75;;;;;;;20.74;95.21;101296.50;5074222;28;20123;-77
2023/09/29 08:37:23;;;;;;;4.65;2.20;;;;;;;20.70;95.60;101297.84;5076278;28;20103;-77
2023/09/29 08:39:50;;;;;;;8.38;2.95;;;;;;;20.67;95.39;101304.38;5069524;28;20044;-78
2023/09/29 08:42:37;;;;;;;4.90;2.70;;;;;;;20.64;96.04;101304.72;5067498;28;20070;-81
2023/09/29 08:45:15;;;;;;;4.28;2.88;;;;;;;20.60;97.15;101314.91;5078064;28;20496;-80
2023/09/29 08:47:50;;;;;;;4.82;2.28;;;;;;;20.58;97.91;101316.91;5076374;28;20036;-77
2023/09/29 08:50:17;;;;;;;4.72;2.53;;;;;;;20.60;96.92;101314.09;5090446;28;20027;-82
2023/09/29 08:52:44;;;;;;;8.43;2.90;;;;;;;20.64;96.35;101326.94;5071370;28;20048;-77
2023/09/29 08:55:12;;;;;;;6.40;2.67;;;;;;;20.67;96.66;101319.59;5074824;28;20027;-80
2023/09/29 08:57:41;;;;;;;6.95;2.40;;;;;;;20.69;95.63;101317.59;5074708;28;20055;-77
2023/09/29 09:00:14;;;;;;;6.45;2.55;;;;;;;20.76;95.63;101313.22;5077726;28;20030;-76
2023/09/29 09:02:43;;;;;;;5.32;2.45;;;;;;;20.82;95.11;101320.59;5088954;28;20488;-77
2023/09/29 09:05:12;;;;;;;7.10;2.97;;;;;;;20.82;95.42;101313.41;5089760;28;20024;-76
2023/09/29 09:07:53;;;;;;;5.57;2.90;;;;;;;20.86;95.62;101329.97;5080423;28;20031;-81
2023/09/29 09:10:29;;;;;;;5.80;3.15;;;;;;;20.84;94.91;101321.28;5055115;28;20024;-80
2023/09/29 09:12:55;;;;;;;5.68;2.72;;;;;;;20.84;94.98;101326.63;5078350;28;20031;-80
2023/09/29 09:15:26;;;;;;;5.20;2.35;;;;;;;20.77;94.58;101334.44;5080075;28;20473;-80
2023/09/29 09:17:51;;;;;;;5.57;2.63;;;;;;;20.74;94.21;101333.97;5060829;28;20020;-77
2023/09/29 09:20:17;;;;;;;5.97;2.80;;;;;;;20.69;95.91;101344.31;5055030;28;20027;-80
2023/09/29 09:23:04;;;;;;;6.75;2.92;;;;;;;20.57;96.02;101336.63;5082327;28;20024;-81
2023/09/29 09:25:35;;;;;;;6.85;3.00;;;;;;;20.56;97.90;101344.81;5079991;28;20051;-79
2023/09/29 09:28:01;;;;;;;6.10;2.80;;;;;;;20.53;98.24;101345.16;5061888;28;20476;-76
2023/09/29 09:30:27;;;;;;;8.65;2.75;;;;;;;20.53;97.49;101340.66;5085655;28;20093;-80
2023/09/29 09:32:53;;;;;;;4.18;2.63;;;;;;;20.59;97.07;101345.34;5089154;28;20024;-76
2023/09/29 09:35:29;;;;;;;3.83;2.28;;;;;;;20.63;96.59;101349.34;5090182;28;20396;-81
2023/09/29 09:37:55;;;;;;;6.20;2.88;;;;;;;20.67;96.57;101351.69;5064813;28;20035;-81
2023/09/29 09:40:25;;;;;;;5.15;2.90;;;;;;;20.67;96.83;101351.69;5072775;28;20021;-81
2023/09/29 09:42:54;;;;;;;6.70;2.60;;;;;;;20.67;96.23;101357.03;5070817;28;20025;-80
2023/09/29 09:45:24;;;;;;;6.60;3.00;;;;;;;20.63;95.64;101361.88;5083941;28;20047;-80
2023/09/29 09:47:51;;;;;;;4.95;2.70;;;;;;;20.63;96.82;101359.19;5089253;28;20117;-80
2023/09/29 09:50:19;;;;;;;6.00;2.88;;;;;;;20.61;97.13;101367.38;5088957;28;20069;-80
2023/09/29 09:52:50;;;;;;;8.57;3.03;;;;;;;20.59;97.72;101372.06;5075690;28;20024;-80
2023/09/29 09:55:17;;;;;;;5.22;2.70;;;;;;;20.61;97.11;101371.91;5065385;28;20016;-80
2023/09/29 09:57:45;;;;;;;6.68;2.53;;;;;;;20.61;96.29;101374.56;5077923;28;20468;-77
2023/09/29 10:00:12;;;;;;;5.50;3.05;;;;;;;20.64;96.97;101375.06;5078511;28;20035;-78
2023/09/29 10:02:47;;;;;;;7.35;2.80;;;;;;;20.69;97.31;101382.59;5056850;28;20743;-77
2023/09/29 10:05:17;;;;;;;7.07;2.42;;;;;;;20.68;97.24;101390.78;5070704;28;20031;-77
2023/09/29 10:07:53;;;;;;;7.03;2.65;;;;;;;20.66;97.28;101388.28;5075602;28;20055;-77
2023/09/29 10:10:44;;;;;;;8.18;3.17;;;;;;;20.63;97.49;101388.63;5085425;28;20111;-80
2023/09/29 10:13:11;;;;;;;9.13;2.88;;;;;;;20.57;96.58;101378.59;5039394;28;20040;-80
2023/09/29 10:15:38;;;;;;;6.72;2.70;;;;;;;20.57;97.85;101392.78;5089539;28;20028;-79
2023/09/29 10:18:17;;;;;;;4.95;2.50;;;;;;;20.56;97.22;101392.97;5059327;28;20047;-75
2023/09/29 10:20:48;;;;;;;6.07;3.00;;;;;;;20.50;98.03;101390.94;5071059;28;20039;-79
2023/09/29 10:23:15;;;;;;;7.88;3.20;;;;;;;20.47;97.90;101388.59;5070280;28;20020;-75
2023/09/29 10:25:44;;;;;;;5.63;2.78;;;;;;;20.48;97.90;101383.09;5070964;28;20040;-79
2023/09/29 10:28:12;;;;;;;5.53;2.50;;;;;;;20.50;97.71;101389.13;5052851;28;20051;-78
2023/09/29 10:30:39;;;;;;;6.72;2.75;;;;;;;20.52;98.10;101392.44;5073744;28;20361;-78
2023/09/29 10:33:13;;;;;;;5.70;3.08;;;;;;;20.54;98.42;101390.44;5088810;28;20106;-79
2023/09/29 10:35:47;;;;;;;6.80;2.92;;;;;;;20.58;98.44;101398.97;5092776;28;20042;-80
2023/09/29 10:38:25;;;;;;;7.22;3.03;;;;;;;20.56;98.32;101400.97;5079896;28;20427;-76
2023/09/29 10:40:52;;;;;;;6.47;3.00;;;;;;;20.53;97.89;101399.47;5089963;28;20027;-78
2023/09/29 10:43:21;;;;;;;6.25;2.55;;;;;;;20.57;97.64;101408.00;5084645;28;20020;-77
2023/09/29 10:45:47;;;;;;;7.20;2.60;;;;;;;20.53;98.39;101409.34;5082241;28;20040;-78
2023/09/29 10:48:13;;;;;;;5.82;2.72;;;;;;;20.51;98.40;101412.16;5085931;28;20017;-76
2023/09/29 10:50:50;;;;;;;5.75;2.50;;;;;;;20.52;98.73;101411.16;5092617;28;20047;-79
2023/09/29 10:53:17;;;;;;;5.60;2.70;;;;;;;20.54;98.15;101406.50;5091703;28;20099;-78
2023/09/29 10:55:44;;;;;;;6.10;3.00;;;;;;;20.56;98.71;101420.53;5091564;28;20042;-79
2023/09/29 10:58:11;;;;;;;6.38;2.70;;;;;;;20.52;98.69;101429.88;5090072;28;20034;-76
2023/09/29 11:00:46;;;;;;;6.35;2.50;;;;;;;20.50;99.61;101434.56;5077659;28;20031;-77
2023/09/29 11:03:13;;;;;;;4.30;2.55;;;;;;;20.58;99.48;101429.22;5090342;28;20369;-76
2023/09/29 11:05:49;;;;;;;4.75;2.65;;;;;;;20.85;98.89;101424.59;5089908;28;20027;-76
2023/09/29 11:08:21;;;;;;;6.32;2.40;;;;;;;21.00;96.11;101430.09;5066881;28;20028;-76
2023/09/29 11:10:55;;;;;;;4.30;2.38;;;;;;;21.08;97.34;101430.09;5068088;28;20497;-79
2023/09/29 11:13:21;;;;;;;5.32;2.15;;;;;;;21.17;96.05;101432.59;5077046;28;20032;-76
2023/09/29 11:15:46;;;;;;;4.60;2.25;;;;;;;21.28;95.97;101426.13;5077873;28;20026;-76
2023/09/29 11:18:11;;;;;;;4.05;2.40;;;;;;;21.27;94.91;101430.63;5089437;28;20027;-77
2023/09/29 11:20:37;;;;;;;4.35;2.22;;;;;;;21.19;97.82;101438.63;5091173;28;20102;-76